Time;durP1;ratioP1;P1;durP2;ratioP2;P2;SDS_P1;SDS_P2;PMS_P1;PMS_P2;Temp;Humidity;BMP_temperature;BMP_pressure;BME280_temperature;BME280_humidity;BME280_pressure;Samples;Min_cycle;Max_cycle;Signal;HPM_P1;HPM_P2
2023/08/19 00:02:03;;;;;;;3.70;2.95;;;;;;;24.19;57.85;94736.31;5090089;28;20271;-42
2023/08/19 00:04:29;;;;;;;4.50;3.30;;;;;;;24.18;58.04;94729.50;5090611;28;20186;-43
2023/08/19 00:06:56;;;;;;;4.93;2.95;;;;;;;23.82;57.91;94677.31;5089968;28;20716;-43
2023/08/19 00:09:23;;;;;;;5.65;3.17;;;;;;;24.00;58.39;94721.69;5090037;28;20190;-42
2023/08/19 00:11:52;;;;;;;4.68;2.90;;;;;;;24.04;58.59;94731.47;5089857;28;20193;-44
2023/08/19 00:14:18;;;;;;;5.32;3.03;;;;;;;23.99;58.65;94731.31;5090181;28;20186;-42
2023/08/19 00:16:45;;;;;;;5.20;3.22;;;;;;;23.95;58.94;94740.63;5090136;28;20189;-41
2023/08/19 00:19:12;;;;;;;5.05;2.80;;;;;;;23.91;58.89;94733.44;5089565;28;20190;-42
2023/08/19 00:21:39;;;;;;;5.50;2.78;;;;;;;23.94;58.88;94736.41;5089981;28;20448;-42
2023/08/19 00:24:06;;;;;;;5.95;2.92;;;;;;;23.89;59.06;94740.72;5089414;28;20726;-42
2023/08/19 00:26:33;;;;;;;5.50;2.83;;;;;;;23.86;59.10;94728.88;5090765;28;20282;-44
2023/08/19 00:29:01;;;;;;;5.55;2.72;;;;;;;23.84;58.94;94733.53;5089562;28;20193;-44
2023/08/19 00:31:28;;;;;;;7.15;2.90;;;;;;;23.84;58.83;94722.28;5089685;28;20526;-43
2023/08/19 00:33:54;;;;;;;8.27;3.25;;;;;;;23.68;58.83;94703.56;5089369;28;20246;-43
2023/08/19 00:36:21;;;;;;;3.33;3.03;;;;;;;23.81;59.02;94714.88;5089480;28;20196;-42
2023/08/19 00:38:51;;;;;;;5.00;2.97;;;;;;;23.80;58.91;94710.69;5089246;28;21002;-43
2023/08/19 00:41:18;;;;;;;3.40;2.95;;;;;;;23.74;59.07;94709.72;5089621;28;20185;-42
2023/08/19 00:43:45;;;;;;;6.72;3.03;;;;;;;23.74;59.30;94710.53;5089462;28;20196;-44
2023/08/19 00:46:13;;;;;;;5.63;2.90;;;;;;;23.72;58.89;94711.78;5089490;28;20274;-44
2023/08/19 00:48:41;;;;;;;7.63;3.20;;;;;;;23.72;59.11;94715.19;5089210;28;20185;-43
2023/08/19 00:51:07;;;;;;;6.05;2.70;;;;;;;23.72;59.17;94707.34;5089502;28;20726;-44
2023/08/19 00:53:35;;;;;;;3.85;2.70;;;;;;;23.72;58.83;94704.75;5089996;28;20189;-43
2023/08/19 00:56:02;;;;;;;3.67;3.15;;;;;;;23.68;58.96;94703.56;5089025;28;20190;-41
2023/08/19 00:58:29;;;;;;;4.05;2.65;;;;;;;23.70;58.99;94700.72;5089546;28;20194;-42
2023/08/19 01:00:56;;;;;;;5.57;2.97;;;;;;;23.67;58.95;94696.75;5089132;28;20204;-43
2023/08/19 01:03:25;;;;;;;4.88;2.83;;;;;;;23.67;59.18;94702.00;5089632;28;20190;-42
2023/08/19 01:06:02;;;;;;;3.10;2.83;;;;;;;23.62;59.49;94709.66;5088838;28;20649;-41
2023/08/19 01:08:38;;;;;;;3.30;3.00;;;;;;;23.66;59.04;94704.78;5089116;28;20193;-44
2023/08/19 01:11:13;;;;;;;5.90;3.20;;;;;;;23.61;59.24;94704.63;5089167;28;20189;-44
2023/08/19 01:13:49;;;;;;;5.53;3.00;;;;;;;23.58;59.63;94710.31;5089549;28;20188;-43
2023/08/19 01:16:23;;;;;;;5.40;3.35;;;;;;;23.54;59.26;94712.56;5088899;28;20684;-43
2023/08/19 01:18:53;;;;;;;3.90;3.10;;;;;;;23.58;59.09;94705.09;5088969;28;20204;-44
2023/08/19 01:21:21;;;;;;;4.22;2.90;;;;;;;23.58;58.96;94712.91;5089342;28;20189;-43
2023/08/19 01:23:49;;;;;;;5.97;3.03;;;;;;;23.54;58.91;94702.91;5089050;28;20189;-41
2023/08/19 01:26:17;;;;;;;3.78;3.03;;;;;;;23.52;58.73;94701.50;5089105;28;20558;-43
2023/08/19 01:28:44;;;;;;;3.65;2.90;;;;;;;23.54;59.07;94712.56;5089167;28;20194;-44
2023/08/19 01:31:11;;;;;;;3.70;2.95;;;;;;;23.50;59.43;94711.38;5088961;28;20273;-44
2023/08/19 01:33:38;;;;;;;3.35;3.10;;;;;;;23.49;59.42;94692.31;5089230;28;20189;-43
2023/08/19 01:36:13;;;;;;;5.28;3.45;;;;;;;23.51;59.92;94703.31;5088776;28;20200;-43
2023/08/19 01:38:45;;;;;;;4.15;3.20;;;;;;;23.45;60.26;94701.59;5088995;28;20254;-42
2023/08/19 01:41:15;;;;;;;4.47;3.42;;;;;;;23.44;60.16;94699.97;5089012;28;20182;-44
2023/08/19 01:43:44;;;;;;;4.00;2.92;;;;;;;23.43;60.15;94690.56;5089027;28;20675;-43
2023/08/19 01:46:11;;;;;;;7.03;3.20;;;;;;;23.26;60.21;94673.88;5092914;28;20210;-43
2023/08/19 01:48:38;;;;;;;6.40;3.65;;;;;;;23.36;60.65;94686.41;5093150;28;20184;-43
2023/08/19 01:51:05;;;;;;;5.80;3.05;;;;;;;23.30;60.65;94693.31;5092742;28;20291;-42
2023/08/19 01:53:31;;;;;;;4.72;3.22;;;;;;;23.24;60.99;94687.16;5092973;28;20201;-43
2023/08/19 01:55:58;;;;;;;7.35;2.92;;;;;;;23.21;60.84;94686.78;5092637;28;20185;-43
2023/08/19 01:58:25;;;;;;;5.82;3.58;;;;;;;23.20;61.07;94688.59;5092683;28;20189;-42
2023/08/19 02:00:53;;;;;;;4.05;3.35;;;;;;;23.07;61.08;94672.28;5092379;28;20205;-42
2023/08/19 02:03:20;;;;;;;6.55;3.83;;;;;;;23.19;61.12;94691.44;5092954;28;20254;-43
2023/08/19 02:05:47;;;;;;;3.50;3.20;;;;;;;23.15;60.98;94696.28;5092336;28;20190;-43
2023/08/19 02:08:13;;;;;;;5.35;3.10;;;;;;;23.14;60.99;94688.66;5092600;28;20196;-41
2023/08/19 02:10:41;;;;;;;3.53;3.22;;;;;;;23.10;61.31;94690.09;5092088;28;20541;-43
2023/08/19 02:13:08;;;;;;;4.32;2.90;;;;;;;23.07;61.74;94699.16;5092388;28;20189;-43
2023/08/19 02:15:35;;;;;;;3.63;3.33;;;;;;;23.06;61.66;94697.56;5092374;28;20568;-42
2023/08/19 02:18:03;;;;;;;9.77;3.45;;;;;;;23.01;61.92;94697.38;5091931;28;20193;-45
2023/08/19 02:20:30;;;;;;;6.45;3.00;;;;;;;23.01;61.93;94702.59;5092993;28;20182;-44
2023/08/19 02:23:00;;;;;;;3.60;3.20;;;;;;;23.00;61.86;94688.78;5092137;28;20194;-43
2023/08/19 02:25:27;;;;;;;3.67;3.30;;;;;;;22.96;61.89;94694.63;5092317;28;20658;-42
2023/08/19 02:27:53;;;;;;;7.88;3.22;;;;;;;22.94;62.30;94697.47;5092036;28;20275;-43
2023/08/19 02:30:20;;;;;;;7.95;3.47;;;;;;;22.88;62.42;94687.03;5091953;28;20266;-42
2023/08/19 02:32:47;;;;;;;5.13;3.22;;;;;;;22.84;62.52;94694.53;5091806;28;20198;-42
2023/08/19 02:35:17;;;;;;;4.28;3.20;;;;;;;22.82;62.61;94695.75;5092028;28;20190;-42
2023/08/19 02:37:44;;;;;;;6.82;2.80;;;;;;;22.84;62.38;94694.53;5091555;28;20194;-41
2023/08/19 02:40:11;;;;;;;5.15;3.55;;;;;;;22.78;62.65;94700.56;5091758;28;20185;-44
2023/08/19 02:42:38;;;;;;;5.13;3.00;;;;;;;22.72;62.70;94693.63;5091562;28;20197;-45
2023/08/19 02:45:06;;;;;;;5.05;3.40;;;;;;;22.73;62.63;94696.00;5091559;28;20200;-42
2023/08/19 02:47:32;;;;;;;3.58;3.28;;;;;;;22.29;62.99;94629.19;5091534;28;20226;-43
2023/08/19 02:49:59;;;;;;;9.23;3.38;;;;;;;22.68;63.22;94690.63;5091721;28;20190;-43
2023/08/19 02:52:27;;;;;;;6.00;3.10;;;;;;;22.69;62.85;94696.63;5091204;28;20664;-41
2023/08/19 02:54:54;;;;;;;5.13;3.67;;;;;;;22.67;62.81;94706.50;5091585;28;20182;-43
2023/08/19 02:57:21;;;;;;;5.85;3.47;;;;;;;22.61;62.90;94699.50;5090616;28;20189;-43
2023/08/19 02:59:48;;;;;;;8.30;3.45;;;;;;;22.59;63.10;94701.53;5091064;28;20233;-43
2023/08/19 03:02:15;;;;;;;8.18;3.83;;;;;;;22.59;63.01;94693.72;5091586;28;20193;-42
2023/08/19 03:04:41;;;;;;;5.80;3.35;;;;;;;22.54;63.33;94702.97;5091389;28;20182;-42
2023/08/19 03:07:08;;;;;;;4.70;3.38;;;;;;;22.46;63.33;94700.63;5091296;28;20262;-42
2023/08/19 03:09:36;;;;;;;9.45;3.75;;;;;;;22.46;63.38;94705.81;5091169;28;20190;-44
2023/08/19 03:12:03;;;;;;;7.55;3.67;;;;;;;22.45;63.21;94704.25;5091128;28;20185;-43
2023/08/19 03:14:30;;;;;;;7.35;3.45;;;;;;;22.43;63.45;94702.84;5091249;28;20185;-41
2023/08/19 03:16:57;;;;;;;5.65;3.85;;;;;;;22.41;63.52;94704.84;5091068;28;20280;-41
2023/08/19 03:19:24;;;;;;;7.50;3.58;;;;;;;22.39;63.50;94710.28;5090850;28;20688;-41
2023/08/19 03:21:51;;;;;;;7.88;3.25;;;;;;;22.37;63.49;94704.50;5090944;28;20197;-42
2023/08/19 03:24:17;;;;;;;5.85;3.65;;;;;;;22.33;63.61;94703.31;5090663;28;20186;-41
2023/08/19 03:26:46;;;;;;;5.00;3.90;;;;;;;22.33;63.72;94708.53;5090691;28;20217;-42
2023/08/19 03:29:13;;;;;;;5.57;3.53;;;;;;;22.29;63.83;94708.13;5091081;28;20189;-41
2023/08/19 03:31:40;;;;;;;5.85;3.60;;;;;;;22.27;64.01;94707.53;5090850;28;20708;-42
2023/08/19 03:34:06;;;;;;;5.15;3.67;;;;;;;22.26;63.96;94705.94;5091253;28;20186;-42
2023/08/19 03:36:33;;;;;;;5.57;3.85;;;;;;;22.22;63.97;94704.75;5090786;28;20551;-45
2023/08/19 03:39:00;;;;;;;4.32;3.30;;;;;;;22.21;64.05;94707.59;5090587;28;20658;-41
2023/08/19 03:41:27;;;;;;;6.25;3.20;;;;;;;22.21;64.03;94707.59;5090523;28;20602;-43
2023/08/19 03:43:55;;;;;;;4.63;3.40;;;;;;;22.15;64.31;94708.41;5090653;28;20208;-43
2023/08/19 03:46:21;;;;;;;7.97;3.67;;;;;;;22.12;64.29;94708.81;5090575;28;20221;-41
2023/08/19 03:48:48;;;;;;;6.40;3.47;;;;;;;22.14;64.35;94699.78;5090984;28;20182;-42
2023/08/19 03:51:15;;;;;;;4.82;3.90;;;;;;;22.11;64.06;94695.00;5090645;28;20196;-43
2023/08/19 03:53:42;;;;;;;5.57;3.33;;;;;;;22.17;64.05;94704.59;5090440;28;20186;-41
2023/08/19 03:56:09;;;;;;;5.18;3.63;;;;;;;22.21;63.81;94705.78;5090586;28;20190;-42
2023/08/19 03:58:35;;;;;;;4.13;3.40;;;;;;;22.22;63.27;94698.75;5090331;28;20671;-43
2023/08/19 04:01:07;;;;;;;4.38;3.97;;;;;;;22.35;63.02;94708.31;5090321;28;20194;-42
2023/08/19 04:03:34;;;;;;;7.68;3.50;;;;;;;22.46;62.66;94707.63;5090635;28;20268;-44
2023/08/19 04:06:01;;;;;;;5.10;3.50;;;;;;;22.47;62.18;94710.03;5090319;28;20201;-43
2023/08/19 04:08:29;;;;;;;3.92;3.38;;;;;;;22.53;62.24;94700.56;5090112;28;20262;-43
2023/08/19 04:10:56;;;;;;;6.75;3.53;;;;;;;22.60;61.85;94713.56;5090321;28;20504;-43
2023/08/19 04:13:23;;;;;;;3.63;3.33;;;;;;;22.63;61.65;94713.16;5089976;28;20652;-45
2023/08/19 04:15:49;;;;;;;4.65;3.33;;;;;;;22.68;61.54;94718.50;5090699;28;20572;-42
2023/08/19 04:18:17;;;;;;;4.07;3.53;;;;;;;22.22;61.39;94641.44;5089651;28;20193;-43
2023/08/19 04:20:44;;;;;;;5.07;3.58;;;;;;;22.70;61.43;94714.66;5090352;28;20186;-41
2023/08/19 04:23:13;;;;;;;4.05;3.63;;;;;;;22.71;61.54;94718.06;5089775;28;20600;-43
2023/08/19 04:25:40;;;;;;;6.32;3.88;;;;;;;22.77;61.42;94723.25;5089824;28;20204;-43
2023/08/19 04:28:07;;;;;;;5.13;3.58;;;;;;;22.84;61.27;94727.59;5089467;28;20232;-43
2023/08/19 04:30:36;;;;;;;4.32;3.15;;;;;;;22.77;61.21;94709.41;5089798;28;20302;-43
2023/08/19 04:33:03;;;;;;;4.78;3.53;;;;;;;22.85;60.95;94729.22;5089736;28;20186;-44
2023/08/19 04:35:31;;;;;;;4.25;3.63;;;;;;;22.93;60.71;94742.03;5089612;28;20204;-42
2023/08/19 04:37:58;;;;;;;6.32;3.72;;;;;;;23.02;60.74;94731.09;5089598;28;20193;-43
2023/08/19 04:40:25;;;;;;;6.43;4.10;;;;;;;23.26;60.17;94745.13;5089599;28;20197;-43
2023/08/19 04:42:52;;;;;;;4.88;3.53;;;;;;;23.51;59.96;94746.91;5089597;28;20194;-43
2023/08/19 04:45:18;;;;;;;5.68;3.40;;;;;;;23.75;58.71;94750.53;5089459;28;20204;-44
2023/08/19 04:47:45;;;;;;;7.18;3.97;;;;;;;24.02;58.29;94751.00;5089962;28;20209;-42
2023/08/19 04:50:12;;;;;;;5.63;3.58;;;;;;;24.28;57.45;94755.09;5089555;28;20190;-44
2023/08/19 04:52:40;;;;;;;10.73;3.10;;;;;;;24.58;56.39;94752.50;5089305;28;20193;-43
2023/08/19 04:55:08;;;;;;;7.55;3.63;;;;;;;24.91;55.70;94752.00;5089083;28;20197;-45
2023/08/19 04:57:34;;;;;;;5.97;3.28;;;;;;;25.16;54.24;94761.50;5089225;28;20201;-44
2023/08/19 05:00:02;;;;;;;4.80;2.92;;;;;;;25.44;53.41;94759.03;5089199;28;20198;-43
2023/08/19 05:02:29;;;;;;;6.18;3.60;;;;;;;25.72;53.09;94765.38;5089575;28;20621;-43
2023/08/19 05:04:56;;;;;;;5.53;3.72;;;;;;;25.98;52.09;94762.28;5089200;28;20197;-44
2023/08/19 05:07:23;;;;;;;8.00;3.42;;;;;;;26.26;51.64;94769.38;5089811;28;20232;-43
2023/08/19 05:09:52;;;;;;;6.18;3.70;;;;;;;26.49;50.76;94768.53;5089285;28;20186;-43
2023/08/19 05:12:19;;;;;;;4.32;3.30;;;;;;;26.67;50.29;94777.22;5089447;28;20237;-46
2023/08/19 05:14:46;;;;;;;5.68;3.15;;;;;;;26.81;50.09;94762.75;5089208;28;20182;-45
2023/08/19 05:17:13;;;;;;;6.15;3.38;;;;;;;26.98;48.82;94766.19;5089554;28;20190;-45
2023/08/19 05:19:40;;;;;;;5.18;3.75;;;;;;;27.06;48.83;94767.63;5091318;28;20579;-45
2023/08/19 05:22:07;;;;;;;5.22;3.30;;;;;;;27.32;48.74;94770.69;5093611;28;20665;-45
2023/08/19 05:24:33;;;;;;;5.03;3.30;;;;;;;27.55;48.13;94764.44;5093677;28;20185;-46
2023/08/19 05:27:02;;;;;;;3.60;3.22;;;;;;;27.79;47.51;94770.31;5093477;28;20228;-44
2023/08/19 05:29:28;;;;;;;4.22;3.45;;;;;;;28.04;46.73;94770.66;5093432;28;20197;-42
2023/08/19 05:31:57;;;;;;;5.85;3.40;;;;;;;28.31;45.84;94767.28;5093198;28;20695;-43
2023/08/19 05:34:24;;;;;;;4.93;3.22;;;;;;;28.51;46.14;94759.63;5093537;28;20661;-47
2023/08/19 05:36:51;;;;;;;6.32;2.97;;;;;;;28.84;45.10;94770.97;5093094;28;20228;-43
2023/08/19 05:39:18;;;;;;;5.30;3.35;;;;;;;29.08;44.36;94768.84;5093115;28;20270;-44
2023/08/19 05:41:45;;;;;;;6.00;4.07;;;;;;;29.30;44.15;94764.28;5093208;28;20202;-45
2023/08/19 05:44:13;;;;;;;5.85;3.67;;;;;;;29.43;43.44;94761.19;5093473;28;20185;-45
2023/08/19 05:46:41;;;;;;;3.40;3.10;;;;;;;29.66;42.88;94760.06;5093088;28;20198;-45
2023/08/19 05:49:07;;;;;;;5.05;3.38;;;;;;;29.86;42.77;94758.56;5093535;28;20219;-45
2023/08/19 05:51:34;;;;;;;7.57;3.47;;;;;;;30.05;42.54;94759.69;5092649;28;20198;-44
2023/08/19 05:54:02;;;;;;;6.95;3.53;;;;;;;30.27;42.07;94751.66;5092917;28;20194;-43
2023/08/19 05:56:29;;;;;;;10.82;2.92;;;;;;;30.17;41.47;94751.59;5092880;28;20182;-43
2023/08/19 05:58:56;;;;;;;4.22;3.30;;;;;;;30.13;42.26;94738.09;5092799;28;20208;-43
2023/08/19 06:01:26;;;;;;;5.18;3.15;;;;;;;30.32;42.32;94753.50;5092690;28;20243;-45
2023/08/19 06:03:54;;;;;;;5.28;3.38;;;;;;;30.40;42.00;94756.44;5092655;28;20198;-44
2023/08/19 06:06:22;;;;;;;6.18;3.47;;;;;;;30.38;41.94;94758.53;5091445;28;20197;-44
2023/08/19 06:08:49;;;;;;;6.90;3.60;;;;;;;30.33;42.06;94761.16;5093392;28;20304;-44
2023/08/19 06:11:19;;;;;;;5.13;3.60;;;;;;;30.39;42.41;94757.47;5091401;28;20190;-45
2023/08/19 06:13:48;;;;;;;4.72;3.10;;;;;;;30.59;42.03;94769.16;5092558;28;20193;-44
2023/08/19 06:16:16;;;;;;;8.15;3.85;;;;;;;30.62;41.81;94773.91;5091186;28;20574;-44
2023/08/19 06:18:44;;;;;;;5.13;3.53;;;;;;;30.70;41.51;94779.47;5092259;28;20200;-43
2023/08/19 06:21:13;;;;;;;6.32;3.42;;;;;;;30.84;41.31;94771.06;5092433;28;20219;-43
2023/08/19 06:23:42;;;;;;;7.45;3.60;;;;;;;30.90;41.30;94788.50;5091144;28;20274;-43
2023/08/19 06:26:09;;;;;;;9.52;3.53;;;;;;;31.23;41.07;94782.69;5092407;28;20202;-44
2023/08/19 06:28:36;;;;;;;7.25;3.13;;;;;;;31.44;39.99;94786.16;5092281;28;20268;-43
2023/08/19 06:31:04;;;;;;;6.30;2.83;;;;;;;31.60;39.68;94786.91;5092072;28;20225;-44
2023/08/19 06:33:31;;;;;;;3.90;3.08;;;;;;;31.79;39.57;94776.56;5090969;28;20197;-43
2023/08/19 06:36:00;;;;;;;4.07;3.03;;;;;;;31.90;38.63;94761.47;5092429;28;20691;-46
2023/08/19 06:38:29;;;;;;;6.35;3.30;;;;;;;32.07;38.59;94772.53;5091880;28;20193;-45
2023/08/19 06:41:01;;;;;;;5.95;3.00;;;;;;;32.25;38.11;94789.66;5091963;28;20577;-43
2023/08/19 06:43:28;;;;;;;7.07;3.45;;;;;;;32.43;37.79;94788.31;5092212;28;20189;-44
2023/08/19 06:45:56;;;;;;;3.85;3.05;;;;;;;32.51;37.07;94792.22;5092267;28;20197;-45
2023/08/19 06:48:23;;;;;;;5.22;3.00;;;;;;;32.61;37.17;94795.63;5091750;28;20684;-43
2023/08/19 06:50:51;;;;;;;5.35;3.08;;;;;;;32.58;37.28;94788.22;5091921;28;20665;-43
2023/08/19 06:53:20;;;;;;;10.63;3.05;;;;;;;32.60;37.87;94787.91;5092004;28;20196;-45
2023/08/19 06:55:55;;;;;;;7.28;2.60;;;;;;;32.46;37.44;94754.09;5092000;28;20186;-46
2023/08/19 06:58:25;;;;;;;7.38;3.40;;;;;;;32.70;37.42;94788.66;5091630;28;20196;-45
2023/08/19 07:01:00;;;;;;;9.55;3.30;;;;;;;32.87;37.58;94793.59;5091726;28;20189;-45
2023/08/19 07:03:30;;;;;;;5.07;2.97;;;;;;;32.39;37.25;94724.50;5091675;28;20563;-44
2023/08/19 07:05:57;;;;;;;5.35;3.15;;;;;;;32.98;37.00;94794.34;5091751;28;20236;-45
2023/08/19 07:08:30;;;;;;;10.73;3.30;;;;;;;33.08;36.75;94786.31;5091615;28;20225;-45
2023/08/19 07:10:58;;;;;;;6.30;2.80;;;;;;;33.21;36.44;94790.22;5091393;28;20185;-45
2023/08/19 07:13:25;;;;;;;5.65;3.67;;;;;;;33.26;36.35;94790.16;5091696;28;20182;-45
2023/08/19 07:15:57;;;;;;;3.97;3.33;;;;;;;33.20;36.17;94789.41;5091290;28;20260;-45
2023/08/19 07:18:27;;;;;;;4.55;2.63;;;;;;;33.33;35.69;94800.44;5091455;28;20626;-43
2023/08/19 07:20:56;;;;;;;3.38;3.08;;;;;;;33.35;35.45;94799.09;5091131;28;20634;-45
2023/08/19 07:23:25;;;;;;;4.32;2.88;;;;;;;33.27;34.86;94794.38;5091071;28;20186;-43
2023/08/19 07:25:53;;;;;;;10.55;3.17;;;;;;;33.16;34.69;94793.69;5090965;28;20194;-45
2023/08/19 07:28:23;;;;;;;4.32;2.72;;;;;;;32.86;34.36;94749.63;5091341;28;20237;-43
2023/08/19 07:30:51;;;;;;;2.85;2.53;;;;;;;33.13;34.32;94791.59;5090859;28;20233;-44
2023/08/19 07:33:18;;;;;;;4.88;2.80;;;;;;;33.18;34.29;94782.81;5091235;28;20200;-43
2023/08/19 07:35:45;;;;;;;3.67;2.45;;;;;;;33.15;34.00;94794.75;5090624;28;20181;-45
2023/08/19 07:38:12;;;;;;;3.17;2.60;;;;;;;33.11;33.93;94795.56;5091018;28;20250;-43
2023/08/19 07:40:40;;;;;;;4.55;2.40;;;;;;;33.17;33.68;94786.53;5091033;28;20192;-42
2023/08/19 07:43:07;;;;;;;5.13;2.97;;;;;;;33.18;33.64;94788.09;5090303;28;20182;-42
2023/08/19 07:45:33;;;;;;;6.10;2.08;;;;;;;33.34;33.53;94789.56;5090466;28;20197;-43
2023/08/19 07:48:00;;;;;;;9.65;2.70;;;;;;;33.52;33.14;94793.41;5090526;28;20232;-42
2023/08/19 07:50:27;;;;;;;5.47;2.70;;;;;;;33.50;33.25;94798.19;5090402;28;20688;-43
2023/08/19 07:52:54;;;;;;;5.20;2.28;;;;;;;33.46;33.38;94797.16;5090960;28;20196;-44
2023/08/19 07:55:21;;;;;;;5.22;2.30;;;;;;;33.35;33.60;94793.00;5090142;28;20185;-43
2023/08/19 07:57:49;;;;;;;5.55;2.30;;;;;;;33.36;33.84;94794.56;5090319;28;20182;-44
2023/08/19 08:00:16;;;;;;;9.85;2.78;;;;;;;33.35;33.34;94791.13;5090605;28;20197;-42
2023/08/19 08:02:43;;;;;;;4.43;2.70;;;;;;;33.32;33.40;94790.91;5091937;28;20194;-44
2023/08/19 08:05:10;;;;;;;3.17;2.65;;;;;;;33.18;34.08;94796.06;5090426;28;20193;-43
2023/08/19 08:07:37;;;;;;;3.25;2.38;;;;;;;33.22;34.44;94787.28;5090144;28;20194;-43
2023/08/19 08:10:04;;;;;;;3.38;2.42;;;;;;;33.21;34.11;94788.34;5090433;28;20194;-43
2023/08/19 08:12:31;;;;;;;3.67;2.53;;;;;;;33.17;34.54;94799.78;5090059;28;20289;-44
2023/08/19 08:14:59;;;;;;;3.88;2.33;;;;;;;32.96;34.37;94799.94;5090485;28;20204;-43
2023/08/19 08:17:26;;;;;;;3.08;2.58;;;;;;;32.69;34.83;94794.25;5090218;28;20189;-43
2023/08/19 08:19:55;;;;;;;5.40;2.65;;;;;;;32.36;35.36;94748.06;5090417;28;20185;-42
2023/08/19 08:22:23;;;;;;;2.65;2.38;;;;;;;32.62;35.36;94796.41;5089713;28;20683;-42
2023/08/19 08:24:49;;;;;;;5.15;2.55;;;;;;;31.84;34.92;94676.06;5090046;28;20751;-44
2023/08/19 08:27:16;;;;;;;5.03;2.78;;;;;;;32.68;34.89;94795.28;5089600;28;20200;-43
2023/08/19 08:29:43;;;;;;;4.22;2.63;;;;;;;32.57;35.28;94801.72;5089763;28;20225;-45
2023/08/19 08:32:11;;;;;;;8.45;2.50;;;;;;;32.56;35.48;94797.50;5089645;28;20604;-43
2023/08/19 08:34:38;;;;;;;3.65;2.70;;;;;;;32.55;35.92;94794.03;5090256;28;20185;-45
2023/08/19 08:37:05;;;;;;;6.78;2.85;;;;;;;32.42;36.48;94794.63;5089761;28;20223;-44
2023/08/19 08:39:31;;;;;;;3.53;3.00;;;;;;;32.35;36.47;94794.13;5089725;28;20186;-46
2023/08/19 08:41:59;;;;;;;3.10;2.80;;;;;;;32.28;36.45;94788.31;5089779;28;20185;-43
2023/08/19 08:44:27;;;;;;;4.22;2.60;;;;;;;31.80;36.30;94730.53;5089538;28;20186;-44
2023/08/19 08:46:55;;;;;;;5.40;2.33;;;;;;;32.02;36.54;94783.13;5089972;28;20256;-44
2023/08/19 08:49:25;;;;;;;2.75;2.40;;;;;;;31.84;36.67;94791.66;5089558;28;20221;-48
2023/08/19 08:51:52;;;;;;;3.15;2.65;;;;;;;31.60;37.18;94778.97;5089578;28;20197;-43
2023/08/19 08:54:20;;;;;;;4.75;2.60;;;;;;;31.25;38.05;94787.72;5088470;28;20706;-44
2023/08/19 08:56:47;;;;;;;4.68;2.92;;;;;;;31.03;38.50;94803.81;5089425;28;20217;-43
2023/08/19 08:59:16;;;;;;;8.45;2.50;;;;;;;30.85;38.58;94793.78;5089291;28;20209;-42
2023/08/19 09:01:45;;;;;;;3.65;2.67;;;;;;;30.82;38.54;94781.88;5089669;28;20217;-44
2023/08/19 09:04:15;;;;;;;2.80;2.60;;;;;;;30.63;39.28;94791.31;5089306;28;20652;-44
2023/08/19 09:06:44;;;;;;;4.15;2.50;;;;;;;30.32;39.45;94764.06;5089242;28;20539;-44
2023/08/19 09:09:13;;;;;;;8.45;3.47;;;;;;;30.60;39.17;94786.56;5089288;28;20945;-44
2023/08/19 09:11:41;;;;;;;5.70;3.00;;;;;;;30.62;38.83;94787.13;5089373;28;20661;-44
2023/08/19 09:14:14;;;;;;;5.70;3.08;;;;;;;30.72;39.06;94776.59;5089471;28;20190;-44
2023/08/19 09:16:41;;;;;;;7.80;2.83;;;;;;;30.93;38.87;94774.78;5089395;28;20193;-44
2023/08/19 09:19:08;;;;;;;5.38;2.75;;;;;;;31.10;38.28;94770.03;5089041;28;20243;-44
2023/08/19 09:21:35;;;;;;;3.25;2.78;;;;;;;31.26;37.84;94773.44;5089462;28;20189;-43
2023/08/19 09:24:04;;;;;;;3.05;2.72;;;;;;;31.34;36.78;94770.28;5089100;28;20202;-43
2023/08/19 09:26:31;;;;;;;2.78;2.40;;;;;;;31.33;36.37;94768.72;5089255;28;20243;-44
2023/08/19 09:28:58;;;;;;;5.38;2.38;;;;;;;31.43;35.97;94765.25;5089394;28;20210;-44
2023/08/19 09:31:25;;;;;;;2.40;2.20;;;;;;;31.53;36.11;94767.91;5089030;28;20221;-44
2023/08/19 09:33:53;;;;;;;5.38;2.35;;;;;;;31.67;35.53;94774.22;5089280;28;20200;-43
2023/08/19 09:36:24;;;;;;;4.65;2.17;;;;;;;31.62;35.11;94784.81;5089055;28;20190;-43
2023/08/19 09:38:53;;;;;;;7.55;2.50;;;;;;;31.54;34.94;94781.91;5088836;28;20280;-44
2023/08/19 09:41:25;;;;;;;2.47;1.88;;;;;;;31.41;34.90;94776.09;5088709;28;20273;-43
2023/08/19 09:43:52;;;;;;;5.10;2.60;;;;;;;31.34;35.27;94774.78;5089267;28;20198;-43
2023/08/19 09:46:19;;;;;;;3.92;2.33;;;;;;;31.18;35.28;94779.28;5088896;28;20197;-45
2023/08/19 09:48:53;;;;;;;2.97;2.33;;;;;;;30.94;34.87;94773.72;5088858;28;20317;-45
2023/08/19 09:51:24;;;;;;;2.40;2.20;;;;;;;30.82;35.62;94773.94;5089036;28;20238;-42
2023/08/19 09:53:51;;;;;;;3.80;2.47;;;;;;;30.87;35.57;94767.88;5091150;28;20731;-45
2023/08/19 09:56:22;;;;;;;3.80;2.63;;;;;;;30.96;35.97;94775.03;5089851;28;20185;-43
2023/08/19 09:58:51;;;;;;;6.18;2.35;;;;;;;30.95;35.98;94762.88;5088897;28;20197;-43
2023/08/19 10:01:18;;;;;;;3.65;2.15;;;;;;;30.97;36.24;94766.06;5089115;28;20209;-43
2023/08/19 10:03:45;;;;;;;2.70;2.08;;;;;;;30.81;35.52;94774.22;5088795;28;20598;-44
2023/08/19 10:06:14;;;;;;;5.07;2.63;;;;;;;30.62;35.80;94768.63;5091114;28;20663;-43
2023/08/19 10:08:44;;;;;;;7.63;2.60;;;;;;;30.55;36.15;94770.72;5092492;28;20685;-43
2023/08/19 10:11:12;;;;;;;6.78;2.53;;;;;;;30.45;35.87;94772.28;5092186;28;20755;-43
2023/08/19 10:13:42;;;;;;;4.75;2.40;;;;;;;30.47;36.76;94766.72;5092538;28;20196;-45
2023/08/19 10:16:09;;;;;;;9.10;2.20;;;;;;;30.43;37.09;94770.94;5092186;28;20208;-44
2023/08/19 10:18:39;;;;;;;2.85;1.95;;;;;;;30.47;36.69;94764.09;5092313;28;20194;-43
2023/08/19 10:21:11;;;;;;;3.95;2.08;;;;;;;30.40;36.59;94756.44;5092127;28;20193;-44
2023/08/19 10:23:43;;;;;;;2.53;2.33;;;;;;;30.23;36.37;94747.94;5092668;28;20194;-45
2023/08/19 10:26:10;;;;;;;4.50;2.55;;;;;;;30.11;36.89;94732.31;5092152;28;20250;-45
2023/08/19 10:28:37;;;;;;;6.47;2.55;;;;;;;30.35;37.25;94758.25;5092461;28;20213;-43
2023/08/19 10:31:10;;;;;;;5.22;2.20;;;;;;;30.51;36.29;94759.09;5092001;28;20229;-44
2023/08/19 10:33:43;;;;;;;2.50;2.30;;;;;;;30.60;36.43;94758.31;5092103;28;20247;-45
2023/08/19 10:36:12;;;;;;;2.60;2.40;;;;;;;30.68;36.94;94751.72;5092055;28;20243;-44
2023/08/19 10:38:56;;;;;;;3.20;2.25;;;;;;;30.82;36.77;94754.66;5092021;28;20519;-44
2023/08/19 10:41:26;;;;;;;4.25;2.35;;;;;;;30.87;35.88;94755.50;5091861;28;20213;-46
2023/08/19 10:44:01;;;;;;;7.30;2.47;;;;;;;30.91;35.56;94759.16;5091794;28;20224;-44
2023/08/19 10:46:33;;;;;;;4.45;2.80;;;;;;;30.89;35.75;94749.94;5091971;28;20181;-44
2023/08/19 10:49:00;;;;;;;3.67;2.60;;;;;;;30.95;36.26;94749.66;5092030;28;20765;-44
2023/08/19 10:51:47;;;;;;;3.08;2.47;;;;;;;31.03;35.82;94744.91;5091604;28;20645;-44
2023/08/19 10:54:14;;;;;;;2.58;2.38;;;;;;;31.02;35.61;94752.06;5091776;28;20270;-43
2023/08/19 10:56:45;;;;;;;3.05;2.10;;;;;;;31.08;35.57;94750.19;5091174;28;20538;-43
2023/08/19 10:59:12;;;;;;;3.65;2.28;;;;;;;31.14;35.13;94741.22;5091879;28;20276;-43
2023/08/19 11:01:41;;;;;;;4.00;2.42;;;;;;;31.19;35.09;94747.28;5091390;28;20190;-44
2023/08/19 11:04:07;;;;;;;2.80;2.60;;;;;;;31.27;35.60;94758.41;5091509;28;20298;-43
2023/08/19 11:06:35;;;;;;;4.32;2.28;;;;;;;31.41;35.27;94751.53;5091328;28;20186;-48
2023/08/19 11:09:02;;;;;;;4.68;2.45;;;;;;;31.46;34.84;94756.78;5091373;28;20222;-43
2023/08/19 11:11:31;;;;;;;4.38;2.30;;;;;;;31.47;35.20;94753.09;5091493;28;20181;-44
2023/08/19 11:13:59;;;;;;;2.50;2.30;;;;;;;31.44;34.97;94753.66;5091576;28;20215;-44
2023/08/19 11:16:27;;;;;;;2.60;2.40;;;;;;;31.46;35.55;94747.00;5090514;28;20179;-45
2023/08/19 11:18:56;;;;;;;3.13;2.35;;;;;;;31.47;35.42;94768.94;5091254;28;20216;-44
2023/08/19 11:21:24;;;;;;;3.53;2.50;;;;;;;31.50;35.26;94749.13;5091095;28;20611;-44
2023/08/19 11:23:51;;;;;;;3.28;2.40;;;;;;;31.60;35.34;94749.09;5091050;28;20190;-44
2023/08/19 11:26:18;;;;;;;2.85;2.58;;;;;;;31.71;35.24;94748.03;5091099;28;20717;-44
2023/08/19 11:28:45;;;;;;;4.78;2.47;;;;;;;31.84;35.47;94750.13;5091129;28;20247;-44
2023/08/19 11:31:12;;;;;;;2.75;2.50;;;;;;;31.81;35.09;94742.69;5090762;28;20700;-45
2023/08/19 11:33:39;;;;;;;3.67;2.28;;;;;;;31.80;35.09;94749.06;5090960;28;20194;-44
2023/08/19 11:36:07;;;;;;;5.03;2.60;;;;;;;31.67;35.24;94739.81;5091527;28;20190;-44
2023/08/19 11:38:34;;;;;;;2.53;2.20;;;;;;;31.71;35.73;94732.94;5090472;28;20190;-44